Terminal Aerodrome Forecast
Issued by NWS Charleston, SC

Home | Current Version | Previous Version | Text Only | Print | Product List | Glossary On
Versions: 1 2 3 4 5 6 7 8 9 10 11 12 13
000
FTUS42 KCHS 260520
TAFSAV
TAF
KSAV 260520Z 2606/2706 13004KT P6SM SCT080
     FM261500 15007KT P6SM SCT050 BKN070
     FM261800 15011KT P6SM SCT050 SCT070
     FM270200 13005KT P6SM SCT100=

USA.gov is the U.S. government's official web portal to all federal, state and local government web resources and services.